createdAt,value
2018-03-29T00:00:59.667Z,97.47
2018-03-29T00:03:28.046Z,97.26
2018-03-29T00:05:56.342Z,97.19
2018-03-29T00:08:26.475Z,97.28
2018-03-29T00:10:55.552Z,97.20
2018-03-29T00:13:23.855Z,97.16
2018-03-29T00:15:53.019Z,97.01
2018-03-29T00:18:23.736Z,97.20
2018-03-29T00:20:54.397Z,95.99
2018-03-29T00:23:22.706Z,94.66
2018-03-29T00:25:51.178Z,94.62
2018-03-29T00:28:20.365Z,94.56
2018-03-29T00:30:48.656Z,95.00
2018-03-29T00:33:16.955Z,94.97
2018-03-29T00:35:45.223Z,94.50
2018-03-29T00:38:16.285Z,95.01
2018-03-29T00:40:44.637Z,95.43
2018-03-29T00:43:14.688Z,95.30
2018-03-29T00:45:43.020Z,95.29
2018-03-29T00:48:11.338Z,95.48
2018-03-29T00:50:39.679Z,95.97
2018-03-29T00:53:19.895Z,96.16
2018-03-29T00:55:48.304Z,96.42
2018-03-29T00:58:19.224Z,96.67
2018-03-29T01:00:49.326Z,96.78
2018-03-29T01:03:19.688Z,97.09
2018-03-29T01:05:50.595Z,97.28
2018-03-29T01:08:18.951Z,97.37
2018-03-29T01:10:49.943Z,97.43
2018-03-29T01:13:18.272Z,97.40
2018-03-29T01:15:46.580Z,97.41
2018-03-29T01:18:14.880Z,97.45
2018-03-29T01:20:45.869Z,97.60
2018-03-29T01:23:14.196Z,97.87
2018-03-29T01:25:42.497Z,98.11
2018-03-29T01:28:10.832Z,98.41
2018-03-29T01:30:40.871Z,98.67
2018-03-29T01:33:11.868Z,98.52
2018-03-29T01:35:42.397Z,98.44
2018-03-29T01:38:10.724Z,97.90
2018-03-29T01:40:40.810Z,97.47
2018-03-29T01:43:09.132Z,96.63
2018-03-29T01:45:37.680Z,95.87
2018-03-29T01:48:05.961Z,94.85
2018-03-29T01:50:36.908Z,94.40
2018-03-29T01:53:05.352Z,94.51
2018-03-29T01:55:33.662Z,94.78
2018-03-29T01:58:01.972Z,94.71
2018-03-29T02:00:30.489Z,94.00
2018-03-29T02:02:58.802Z,93.16
2018-03-29T02:05:27.148Z,89.17
2018-03-29T02:07:57.599Z,86.25
2018-03-29T02:10:25.872Z,85.21
2018-03-29T02:12:56.584Z,85.18
2018-03-29T02:15:27.846Z,84.71
2018-03-29T02:18:00.673Z,86.79
2018-03-29T02:20:29.040Z,87.29
2018-03-29T02:22:57.480Z,87.30
2018-03-29T02:25:25.796Z,88.37
2018-03-29T02:27:54.062Z,89.00
2018-03-29T02:30:22.408Z,89.82
2018-03-29T02:32:50.804Z,90.43
2018-03-29T02:35:20.921Z,90.74
2018-03-29T02:37:49.419Z,92.07
2018-03-29T02:40:17.780Z,93.24
2018-03-29T02:42:46.834Z,93.71
2018-03-29T02:45:15.153Z,93.94
2018-03-29T02:47:43.477Z,94.20
2018-03-29T02:50:11.779Z,93.95
2018-03-29T02:52:40.211Z,94.10
2018-03-29T02:55:09.253Z,94.02
2018-03-29T02:57:39.562Z,93.24
2018-03-29T03:00:08.763Z,92.41
2018-03-29T03:02:37.088Z,91.86
2018-03-29T03:05:06.209Z,92.04
2018-03-29T03:07:34.472Z,92.09
2018-03-29T03:10:02.797Z,91.93
2018-03-29T03:12:32.842Z,90.32
2018-03-29T03:15:02.863Z,89.75
2018-03-29T03:17:31.652Z,88.22
2018-03-29T03:20:00.232Z,88.31
2018-03-29T03:22:28.532Z,88.17
2018-03-29T03:24:58.462Z,86.85
2018-03-29T03:27:26.803Z,87.20
2018-03-29T03:29:57.318Z,87.48
2018-03-29T03:32:25.630Z,87.21
2018-03-29T03:34:53.973Z,87.45
2018-03-29T03:37:22.295Z,87.11
2018-03-29T03:39:50.628Z,86.64
2018-03-29T03:42:21.100Z,86.73
2018-03-29T03:44:51.826Z,86.48
2018-03-29T03:47:21.024Z,86.37
2018-03-29T03:49:49.394Z,85.93
2018-03-29T03:52:17.755Z,85.49
2018-03-29T03:54:46.186Z,84.79
2018-03-29T03:57:14.497Z,85.27
2018-03-29T03:59:42.840Z,83.95
2018-03-29T04:02:11.118Z,83.97
2018-03-29T04:04:39.398Z,85.20
2018-03-29T04:07:07.734Z,84.74
2018-03-29T04:09:36.039Z,85.28
2018-03-29T04:12:04.323Z,85.23
2018-03-29T04:14:32.627Z,85.29
2018-03-29T04:17:01.124Z,85.69
2018-03-29T04:19:30.161Z,85.29
2018-03-29T04:22:00.142Z,84.80
2018-03-29T04:24:28.516Z,84.63
2018-03-29T04:26:57.600Z,84.42
2018-03-29T04:29:25.962Z,83.77
2018-03-29T04:31:54.255Z,83.94
2018-03-29T04:34:22.533Z,83.49
2018-03-29T04:36:50.910Z,83.58
2018-03-29T04:39:19.208Z,84.09
2018-03-29T04:41:47.530Z,82.85
2018-03-29T04:44:16.008Z,83.87
2018-03-29T04:46:44.341Z,83.59
2018-03-29T04:49:14.418Z,83.06
2018-03-29T04:51:42.839Z,82.76
2018-03-29T04:54:11.186Z,83.78
2018-03-29T04:56:39.633Z,84.09
2018-03-29T04:59:08.047Z,83.78
2018-03-29T05:01:38.973Z,83.49
2018-03-29T05:04:07.437Z,84.34
2018-03-29T05:06:38.364Z,84.11
2018-03-29T05:09:07.559Z,84.45
2018-03-29T05:11:38.818Z,84.09
2018-03-29T05:14:09.804Z,84.51
2018-03-29T05:16:38.169Z,84.50
2018-03-29T05:19:06.460Z,84.87
2018-03-29T05:21:34.807Z,84.37
2018-03-29T05:24:03.203Z,84.65
2018-03-29T05:26:39.131Z,84.65
2018-03-29T05:29:07.463Z,84.46
2018-03-29T05:31:35.808Z,83.43
2018-03-29T05:34:04.097Z,83.60
2018-03-29T05:36:34.019Z,84.08
2018-03-29T05:39:02.361Z,83.86
2018-03-29T05:41:31.390Z,83.72
2018-03-29T05:43:59.715Z,83.58
2018-03-29T05:46:29.017Z,83.42
2018-03-29T05:48:57.381Z,83.62
2018-03-29T05:51:27.729Z,82.78
2018-03-29T05:53:58.527Z,82.18
2018-03-29T05:56:28.825Z,82.79
2018-03-29T05:58:59.285Z,81.94
2018-03-29T06:01:28.034Z,81.83
2018-03-29T06:03:59.041Z,80.90
2018-03-29T06:06:27.435Z,81.32
2018-03-29T06:08:55.700Z,80.49
2018-03-29T06:11:24.053Z,80.38
2018-03-29T06:13:58.691Z,79.71
2018-03-29T06:16:27.909Z,79.58
2018-03-29T06:18:59.129Z,79.85
2018-03-29T06:21:27.463Z,78.85
2018-03-29T06:23:57.365Z,79.60
2018-03-29T06:26:26.687Z,79.19
2018-03-29T06:28:55.049Z,78.57
2018-03-29T06:31:23.402Z,78.40
2018-03-29T06:33:53.363Z,78.83
2018-03-29T06:36:23.398Z,78.11
2018-03-29T06:38:51.991Z,77.58
2018-03-29T06:41:22.082Z,77.71
2018-03-29T06:43:50.465Z,75.42
2018-03-29T06:46:22.435Z,76.32
2018-03-29T06:48:52.484Z,77.13
2018-03-29T06:51:20.917Z,74.48
2018-03-29T06:53:51.019Z,76.06
2018-03-29T06:56:19.331Z,75.35
2018-03-29T06:58:47.668Z,74.31
2018-03-29T07:01:17.945Z,74.44
2018-03-29T07:03:49.064Z,76.35
2018-03-29T07:06:19.411Z,74.63
2018-03-29T07:08:48.686Z,75.21
2018-03-29T07:11:17.071Z,76.09
2018-03-29T07:13:45.399Z,75.64
2018-03-29T07:16:13.722Z,75.10
2018-03-29T07:18:42.002Z,74.00
2018-03-29T07:21:14.871Z,73.47
2018-03-29T07:23:45.512Z,74.81
2018-03-29T07:26:14.023Z,73.92
2018-03-29T07:28:42.319Z,74.17
2018-03-29T07:31:10.870Z,72.67
2018-03-29T07:33:40.803Z,74.94
2018-03-29T07:36:09.192Z,74.16
2018-03-29T07:38:37.538Z,73.31
2018-03-29T07:41:10.585Z,72.49
2018-03-29T07:43:45.063Z,70.63
2018-03-29T07:46:17.045Z,70.76
2018-03-29T07:48:46.731Z,70.29
2018-03-29T07:51:15.081Z,69.11
2018-03-29T07:53:43.486Z,70.30
2018-03-29T07:56:12.028Z,70.29
2018-03-29T07:58:40.385Z,70.84
2018-03-29T08:01:08.710Z,69.19
2018-03-29T08:03:39.075Z,67.60
2018-03-29T08:06:09.761Z,67.21
2018-03-29T08:08:38.136Z,66.82
2018-03-29T08:11:06.537Z,66.33
2018-03-29T08:13:34.888Z,65.66
2018-03-29T08:16:03.293Z,66.92
2018-03-29T08:18:33.396Z,66.71
2018-03-29T08:21:01.951Z,65.40
2018-03-29T08:23:30.437Z,64.84
2018-03-29T08:25:59.526Z,65.12
2018-03-29T08:28:27.824Z,63.36
2018-03-29T08:30:56.146Z,64.84
2018-03-29T08:33:25.469Z,63.83
2018-03-29T08:35:53.782Z,64.69
2018-03-29T08:38:22.148Z,62.13
2018-03-29T08:40:50.669Z,63.02
2018-03-29T08:43:18.959Z,61.19
2018-03-29T08:45:48.923Z,62.05
2018-03-29T08:48:17.404Z,62.92
2018-03-29T08:50:45.736Z,62.14
2018-03-29T08:53:14.032Z,61.10
2018-03-29T08:55:42.334Z,61.62
2018-03-29T08:58:13.385Z,59.17
2018-03-29T09:00:44.715Z,60.58
2018-03-29T09:03:14.406Z,61.49
2018-03-29T09:05:43.047Z,61.08
2018-03-29T09:08:13.196Z,60.52
2018-03-29T09:10:43.128Z,61.90
2018-03-29T09:13:11.608Z,59.45
2018-03-29T09:15:40.013Z,59.14
2018-03-29T09:18:10.917Z,60.24
2018-03-29T09:20:39.307Z,60.38
2018-03-29T09:23:10.345Z,60.52
2018-03-29T09:25:38.920Z,62.08
2018-03-29T09:28:07.202Z,60.56
2018-03-29T09:30:36.288Z,59.60
2018-03-29T09:33:04.618Z,60.68
2018-03-29T09:35:32.976Z,58.22
2018-03-29T09:38:01.504Z,58.86
2018-03-29T09:40:29.832Z,57.82
2018-03-29T09:42:58.181Z,58.42
2018-03-29T09:45:28.154Z,59.02
2018-03-29T09:47:58.356Z,59.11
2018-03-29T09:50:26.680Z,59.72
2018-03-29T09:52:55.070Z,59.19
2018-03-29T09:55:24.266Z,59.45
2018-03-29T09:57:52.758Z,59.73
2018-03-29T10:00:28.177Z,59.14
2018-03-29T10:02:56.572Z,59.62
2018-03-29T10:05:30.412Z,59.83
2018-03-29T10:07:58.808Z,59.76
2018-03-29T10:10:27.154Z,59.16
2018-03-29T10:12:55.527Z,59.16
2018-03-29T10:15:23.986Z,58.41
2018-03-29T10:17:52.280Z,60.92
2018-03-29T10:20:20.634Z,58.35
2018-03-29T10:22:48.953Z,57.04
2018-03-29T10:25:17.309Z,60.63
2018-03-29T10:27:48.329Z,58.79
2018-03-29T10:30:18.367Z,58.10
2018-03-29T10:32:49.682Z,59.54
2018-03-29T10:35:19.807Z,59.53
2018-03-29T10:37:49.743Z,58.76
2018-03-29T10:40:18.059Z,57.96
2018-03-29T10:42:46.387Z,57.96
2018-03-29T10:47:51.658Z,59.57
2018-03-29T10:50:20.833Z,57.97
2018-03-29T10:52:49.244Z,58.86
2018-03-29T10:55:20.183Z,59.02
2018-03-29T10:57:48.609Z,59.79
2018-03-29T11:00:17.657Z,55.99
2018-03-29T11:02:45.965Z,57.21
2018-03-29T11:05:14.325Z,58.84
2018-03-29T11:07:43.318Z,59.24
2018-03-29T11:10:12.578Z,58.75
2018-03-29T11:12:40.981Z,59.50
2018-03-29T11:15:10.085Z,58.63
2018-03-29T11:17:38.398Z,59.67
2018-03-29T11:20:06.710Z,59.64
2018-03-29T11:22:36.845Z,57.37
2018-03-29T11:25:05.358Z,60.71
2018-03-29T11:27:33.688Z,59.74
2018-03-29T11:30:03.751Z,57.36
2018-03-29T11:32:32.284Z,60.07
2018-03-29T11:35:00.662Z,58.70
2018-03-29T11:37:30.674Z,59.12
2018-03-29T11:39:59.047Z,57.13
2018-03-29T11:42:27.540Z,57.97
2018-03-29T11:44:55.890Z,56.42
2018-03-29T11:47:24.189Z,56.00
2018-03-29T11:49:53.289Z,57.75
2018-03-29T11:52:21.621Z,56.08
2018-03-29T11:54:49.980Z,56.61
2018-03-29T11:57:18.337Z,55.75
2018-03-29T11:59:47.876Z,54.90
2018-03-29T12:02:18.055Z,54.83
2018-03-29T12:04:46.487Z,55.99
2018-03-29T12:07:14.801Z,56.49
2018-03-29T12:09:46.395Z,53.95
2018-03-29T12:12:17.290Z,51.82
2018-03-29T12:14:45.761Z,54.60
2018-03-29T12:17:14.261Z,55.68
2018-03-29T12:19:42.639Z,52.93
2018-03-29T12:22:12.889Z,54.41
2018-03-29T12:24:43.497Z,51.60
2018-03-29T12:27:11.935Z,52.51
2018-03-29T12:29:40.235Z,51.85
2018-03-29T12:32:08.566Z,52.60
2018-03-29T12:34:37.039Z,54.37
2018-03-29T12:37:05.349Z,54.53
2018-03-29T12:39:33.712Z,56.14
2018-03-29T12:42:02.772Z,53.00
2018-03-29T12:44:31.251Z,53.18
2018-03-29T12:47:01.442Z,52.76
2018-03-29T12:49:29.825Z,53.84
2018-03-29T12:51:58.125Z,51.64
2018-03-29T12:54:38.281Z,51.20
2018-03-29T12:57:19.210Z,51.63
2018-03-29T12:59:49.400Z,52.18
2018-03-29T13:02:17.747Z,52.27
2018-03-29T13:04:46.939Z,51.69
2018-03-29T13:07:15.335Z,53.20
2018-03-29T13:09:44.636Z,52.34
2018-03-29T13:12:13.830Z,51.12
2018-03-29T13:14:42.380Z,50.40
2018-03-29T13:17:12.441Z,50.81
2018-03-29T13:19:40.766Z,54.29
2018-03-29T13:22:09.081Z,52.94
2018-03-29T13:24:37.495Z,52.63
2018-03-29T13:27:05.915Z,54.08
2018-03-29T13:29:35.260Z,51.10
2018-03-29T13:32:06.180Z,51.78
2018-03-29T13:34:35.310Z,52.90
2018-03-29T13:37:06.220Z,52.26
2018-03-29T13:39:34.863Z,51.58
2018-03-29T13:42:03.148Z,51.23
2018-03-29T13:44:31.511Z,50.25
2018-03-29T13:47:00.657Z,49.83
2018-03-29T13:49:28.909Z,51.23
2018-03-29T13:51:57.354Z,52.47
2018-03-29T13:54:25.600Z,51.67
2018-03-29T13:56:58.357Z,51.01
2018-03-29T13:59:27.187Z,50.87
2018-03-29T14:01:56.148Z,49.79
2018-03-29T14:04:25.114Z,51.64
2018-03-29T14:06:56.041Z,50.54
2018-03-29T14:09:24.446Z,48.30
2018-03-29T14:11:53.837Z,48.74
2018-03-29T14:14:22.197Z,50.21
2018-03-29T14:16:51.223Z,49.21
2018-03-29T14:19:19.707Z,48.75
2018-03-29T14:21:48.760Z,49.09
2018-03-29T14:24:17.028Z,46.79
2018-03-29T14:26:45.284Z,48.83
2018-03-29T14:29:13.562Z,49.18
2018-03-29T14:31:42.031Z,50.73
2018-03-29T14:34:10.355Z,49.27
2018-03-29T14:36:38.876Z,49.59
2018-03-29T14:39:07.166Z,49.46
2018-03-29T14:41:38.116Z,49.83
2018-03-29T14:44:06.606Z,51.32
2018-03-29T14:46:34.861Z,51.12
2018-03-29T14:49:03.142Z,51.36
2018-03-29T14:51:31.394Z,51.33
2018-03-29T14:53:59.667Z,54.57
2018-03-29T14:56:29.768Z,52.46
2018-03-29T14:58:59.112Z,51.25
2018-03-29T15:01:31.207Z,50.99
2018-03-29T15:04:01.290Z,51.89
2018-03-29T15:06:29.769Z,52.41
2018-03-29T15:08:58.068Z,51.97
2018-03-29T15:11:26.471Z,51.43
2018-03-29T15:13:56.755Z,52.42
2018-03-29T15:16:25.115Z,52.23
2018-03-29T15:18:53.364Z,52.25
2018-03-29T15:21:22.571Z,53.44
2018-03-29T15:23:53.713Z,52.83
2018-03-29T15:26:22.849Z,53.84
2018-03-29T15:28:52.875Z,54.62
2018-03-29T15:31:21.342Z,54.05
2018-03-29T15:33:49.599Z,52.20
2018-03-29T15:36:17.900Z,52.83
2018-03-29T15:38:48.072Z,50.21
2018-03-29T15:41:17.277Z,50.50
2018-03-29T15:43:47.681Z,49.37
2018-03-29T15:46:18.523Z,50.83
2018-03-29T15:48:46.903Z,51.32
2018-03-29T15:51:16.054Z,51.81
2018-03-29T15:53:44.317Z,50.75
2018-03-29T15:56:12.677Z,52.35
2018-03-29T15:58:41.018Z,51.32
2018-03-29T16:01:09.246Z,51.77
2018-03-29T16:03:37.536Z,51.76
2018-03-29T16:06:07.454Z,52.74
2018-03-29T16:08:35.734Z,51.93
2018-03-29T16:11:04.730Z,52.46
2018-03-29T16:13:33.027Z,52.35
2018-03-29T16:16:01.293Z,52.61
2018-03-29T16:18:30.339Z,52.80
2018-03-29T16:20:58.591Z,52.52
2018-03-29T16:23:26.878Z,52.97
2018-03-29T16:25:55.236Z,52.90
2018-03-29T16:28:23.599Z,53.29
2018-03-29T16:30:52.714Z,52.92
2018-03-29T16:33:21.092Z,52.78
2018-03-29T16:35:50.188Z,52.72
2018-03-29T16:38:18.495Z,54.04
2018-03-29T16:40:46.780Z,53.19
2018-03-29T16:43:16.110Z,52.67
2018-03-29T16:45:44.413Z,53.47
2018-03-29T16:48:14.448Z,53.08
2018-03-29T16:50:42.996Z,54.49
2018-03-29T16:53:11.197Z,54.36
2018-03-29T16:55:39.443Z,54.55
2018-03-29T16:58:07.716Z,53.58
2018-03-29T17:00:36.197Z,54.31
2018-03-29T17:03:04.478Z,55.15
2018-03-29T17:05:32.863Z,56.18
2018-03-29T17:08:01.413Z,57.08
2018-03-29T17:10:30.909Z,64.96
2018-03-29T17:12:59.388Z,69.11
2018-03-29T17:17:54.254Z,71.67
2018-03-29T17:20:22.514Z,71.99
2018-03-29T17:22:50.782Z,71.36
2018-03-29T17:25:19.811Z,71.30
2018-03-29T17:27:48.320Z,70.92
2018-03-29T17:30:18.382Z,71.71
2018-03-29T17:32:46.699Z,71.86
2018-03-29T17:35:15.090Z,72.43
2018-03-29T17:37:43.312Z,72.67
2018-03-29T17:40:13.354Z,72.85
2018-03-29T17:42:41.815Z,73.58
2018-03-29T17:45:10.871Z,73.36
2018-03-29T17:47:39.318Z,73.59
2018-03-29T17:50:07.601Z,74.06
2018-03-29T17:52:36.834Z,73.99
2018-03-29T17:55:06.945Z,74.11
2018-03-29T17:57:35.645Z,74.45
2018-03-29T18:00:04.004Z,74.70
2018-03-29T18:02:32.415Z,75.03
2018-03-29T18:05:00.922Z,75.29
2018-03-29T18:07:30.806Z,75.43
2018-03-29T18:09:59.288Z,75.68
2018-03-29T18:12:29.193Z,76.08
2018-03-29T18:14:58.588Z,76.55
2018-03-29T18:17:26.852Z,77.52
2018-03-29T18:19:55.116Z,77.88
2018-03-29T18:22:25.274Z,78.41
2018-03-29T18:24:56.260Z,78.74
2018-03-29T18:27:26.747Z,79.09
2018-03-29T18:29:55.136Z,79.51
2018-03-29T18:32:25.715Z,79.46
2018-03-29T18:34:53.948Z,79.61
2018-03-29T18:37:23.017Z,79.80
2018-03-29T18:39:51.504Z,80.10
2018-03-29T18:42:22.259Z,80.51
2018-03-29T18:44:53.522Z,80.72
2018-03-29T18:47:21.993Z,81.00
2018-03-29T18:49:54.669Z,81.12
2018-03-29T18:52:23.232Z,81.41
2018-03-29T18:54:52.102Z,81.54
2018-03-29T18:57:20.542Z,81.88
2018-03-29T18:59:48.785Z,81.89
2018-03-29T19:02:19.066Z,81.90
2018-03-29T19:04:48.234Z,81.81
2018-03-29T19:07:18.416Z,81.51
2018-03-29T19:09:47.066Z,81.60
2018-03-29T19:12:16.432Z,81.95
2018-03-29T19:14:47.400Z,81.36
2018-03-29T19:17:17.675Z,81.90
2018-03-29T19:19:49.877Z,81.98
2018-03-29T19:22:19.173Z,82.22
2018-03-29T19:24:47.437Z,82.10
2018-03-29T19:27:15.698Z,82.17
2018-03-29T19:29:44.846Z,82.14
2018-03-29T19:32:18.987Z,81.95
2018-03-29T19:34:47.553Z,82.34
2018-03-29T19:37:16.520Z,82.72
2018-03-29T19:39:46.609Z,82.91
2018-03-29T19:42:14.944Z,82.93
2018-03-29T19:44:44.992Z,82.94
2018-03-29T19:47:13.373Z,82.75
2018-03-29T19:49:42.350Z,82.87
2018-03-29T19:52:15.986Z,82.91
2018-03-29T19:54:44.264Z,83.07
2018-03-29T19:57:13.222Z,83.35
2018-03-29T19:59:43.296Z,83.28
2018-03-29T20:02:13.529Z,83.56
2018-03-29T20:04:41.910Z,83.68
2018-03-29T20:07:11.038Z,84.04
2018-03-29T20:09:39.961Z,84.00
2018-03-29T20:12:10.869Z,84.32
2018-03-29T20:14:41.226Z,84.25
2018-03-29T20:17:13.591Z,84.22
2018-03-29T20:19:42.072Z,84.75
2018-03-29T20:22:10.358Z,85.03
2018-03-29T20:24:38.701Z,85.03
2018-03-29T20:27:07.117Z,85.09
2018-03-29T20:29:38.067Z,85.10
2018-03-29T20:32:06.807Z,85.50
2018-03-29T20:34:37.665Z,85.62
2018-03-29T20:37:06.210Z,85.24
2018-03-29T20:39:34.449Z,85.18
2018-03-29T20:42:02.685Z,85.45
2018-03-29T20:44:31.230Z,85.60
2018-03-29T20:46:59.462Z,86.05
2018-03-29T20:49:27.975Z,86.17
2018-03-29T20:51:56.283Z,85.96
2018-03-29T20:54:24.735Z,85.81
2018-03-29T20:56:53.001Z,85.66
2018-03-29T20:59:22.237Z,85.84
2018-03-29T21:01:50.667Z,85.53
2018-03-29T21:04:18.887Z,85.59
2018-03-29T21:06:49.054Z,85.53
2018-03-29T21:09:19.173Z,85.75
2018-03-29T21:11:47.541Z,85.97
2018-03-29T21:14:16.534Z,85.98
2018-03-29T21:16:44.751Z,86.15
2018-03-29T21:19:13.034Z,86.10
2018-03-29T21:21:43.985Z,86.09
2018-03-29T21:24:12.269Z,85.98
2018-03-29T21:26:40.486Z,86.17
2018-03-29T21:29:08.757Z,86.22
2018-03-29T21:31:37.089Z,86.24
2018-03-29T21:34:05.330Z,86.35
2018-03-29T21:36:33.548Z,86.28
2018-03-29T21:39:01.784Z,86.21
2018-03-29T21:41:30.907Z,86.10
2018-03-29T21:43:59.146Z,85.94
2018-03-29T21:46:27.810Z,85.83
2018-03-29T21:48:56.215Z,86.02
2018-03-29T21:51:26.222Z,85.88
2018-03-29T21:53:54.593Z,85.81
2018-03-29T21:56:22.998Z,85.63
2018-03-29T21:58:51.232Z,85.58
2018-03-29T22:01:21.088Z,85.72
2018-03-29T22:03:49.566Z,85.55
2018-03-29T22:06:19.579Z,85.41
2018-03-29T22:08:48.199Z,85.33
2018-03-29T22:11:17.491Z,85.19
2018-03-29T22:13:53.904Z,85.19
2018-03-29T22:16:22.215Z,85.10
2018-03-29T22:18:50.577Z,84.95
2018-03-29T22:21:19.093Z,84.98
2018-03-29T22:23:47.372Z,85.01
2018-03-29T22:26:15.583Z,85.00
2018-03-29T22:28:44.230Z,85.00
2018-03-29T22:31:13.371Z,84.79
2018-03-29T22:33:42.579Z,84.97
2018-03-29T22:36:10.820Z,85.05
2018-03-29T22:38:39.464Z,85.11
2018-03-29T22:41:10.518Z,85.16
2018-03-29T22:43:38.745Z,85.08
2018-03-29T22:46:09.150Z,85.25
2018-03-29T22:48:38.187Z,85.54
2018-03-29T22:51:06.433Z,85.58
2018-03-29T22:53:34.702Z,85.45
2018-03-29T22:56:03.155Z,85.21
2018-03-29T22:58:33.272Z,85.11
2018-03-29T23:01:03.360Z,85.02
2018-03-29T23:03:31.746Z,84.65
2018-03-29T23:06:01.794Z,84.70
2018-03-29T23:08:30.830Z,84.54
2018-03-29T23:11:01.023Z,84.53
2018-03-29T23:13:29.599Z,84.64
2018-03-29T23:15:57.927Z,84.72
2018-03-29T23:18:26.351Z,84.48
2018-03-29T23:20:54.697Z,84.82
2018-03-29T23:23:23.909Z,85.00
2018-03-29T23:25:52.385Z,84.77
2018-03-29T23:28:21.362Z,85.18
2018-03-29T23:30:52.407Z,84.92
2018-03-29T23:33:20.720Z,84.63
2018-03-29T23:35:50.674Z,84.75
2018-03-29T23:38:19.121Z,84.74
2018-03-29T23:40:47.375Z,84.91
2018-03-29T23:43:15.858Z,84.84
2018-03-29T23:45:44.107Z,84.79
2018-03-29T23:48:12.713Z,84.99
2018-03-29T23:50:41.017Z,85.58
2018-03-29T23:53:09.252Z,86.07
2018-03-29T23:55:37.544Z,86.33
2018-03-29T23:58:17.655Z,86.24
